sensor_id;sensor_type;location;lat;lon;timestamp;pressure;altitude;pressure_sealevel;temperature;humidity
70488;BME280;57976;48.174;16.370;2024-03-07T00:00:48;99543.06;;;7.06;98.20
70488;BME280;57976;48.174;16.370;2024-03-07T00:02:54;99546.88;;;7.04;98.91
70488;BME280;57976;48.174;16.370;2024-03-07T00:05:00;99542.76;;;7.02;99.28
70488;BME280;57976;48.174;16.370;2024-03-07T00:07:05;99544.07;;;6.98;99.59
70488;BME280;57976;48.174;16.370;2024-03-07T00:09:10;99542.39;;;6.94;100.00
70488;BME280;57976;48.174;16.370;2024-03-07T00:11:15;99547.44;;;6.91;100.00
70488;BME280;57976;48.174;16.370;2024-03-07T00:13:19;99538.39;;;6.87;100.00
70488;BME280;57976;48.174;16.370;2024-03-07T00:15:24;99546.78;;;6.83;100.00
70488;BME280;57976;48.174;16.370;2024-03-07T00:17:29;99543.95;;;6.80;100.00
70488;BME280;57976;48.174;16.370;2024-03-07T00:19:33;99540.41;;;6.77;100.00
70488;BME280;57976;48.174;16.370;2024-03-07T00:21:38;99547.42;;;6.74;100.00
70488;BME280;57976;48.174;16.370;2024-03-07T00:23:43;99545.41;;;6.72;100.00
70488;BME280;57976;48.174;16.370;2024-03-07T00:25:48;99548.05;;;6.68;100.00
70488;BME280;57976;48.174;16.370;2024-03-07T00:27:53;99547.70;;;6.65;100.00
70488;BME280;57976;48.174;16.370;2024-03-07T00:29:57;99543.91;;;6.60;100.00
70488;BME280;57976;48.174;16.370;2024-03-07T00:32:02;99544.34;;;6.57;100.00
70488;BME280;57976;48.174;16.370;2024-03-07T00:34:07;99539.92;;;6.55;100.00
70488;BME280;57976;48.174;16.370;2024-03-07T00:36:22;99541.15;;;6.53;100.00
70488;BME280;57976;48.174;16.370;2024-03-07T00:38:28;99543.65;;;6.50;100.00
70488;BME280;57976;48.174;16.370;2024-03-07T00:40:33;99538.88;;;6.48;100.00
70488;BME280;57976;48.174;16.370;2024-03-07T00:42:37;99532.60;;;6.48;100.00
70488;BME280;57976;48.174;16.370;2024-03-07T00:44:42;99536.20;;;6.47;100.00
70488;BME280;57976;48.174;16.370;2024-03-07T00:46:47;99534.64;;;6.46;100.00
70488;BME280;57976;48.174;16.370;2024-03-07T00:48:52;99526.85;;;6.45;100.00
70488;BME280;57976;48.174;16.370;2024-03-07T00:50:57;99527.25;;;6.45;100.00
70488;BME280;57976;48.174;16.370;2024-03-07T00:53:01;99526.79;;;6.46;100.00
70488;BME280;57976;48.174;16.370;2024-03-07T00:55:10;99523.90;;;6.46;100.00
70488;BME280;57976;48.174;16.370;2024-03-07T00:57:16;99523.83;;;6.45;100.00
70488;BME280;57976;48.174;16.370;2024-03-07T00:59:20;99523.30;;;6.47;100.00
70488;BME280;57976;48.174;16.370;2024-03-07T01:01:25;99526.58;;;6.48;100.00
70488;BME280;57976;48.174;16.370;2024-03-07T01:03:30;99526.38;;;6.48;100.00
70488;BME280;57976;48.174;16.370;2024-03-07T01:05:37;99517.26;;;6.47;100.00
70488;BME280;57976;48.174;16.370;2024-03-07T01:07:42;99521.84;;;6.49;100.00
70488;BME280;57976;48.174;16.370;2024-03-07T01:09:47;99517.77;;;6.49;100.00
70488;BME280;57976;48.174;16.370;2024-03-07T01:11:52;99520.71;;;6.50;100.00
70488;BME280;57976;48.174;16.370;2024-03-07T01:13:58;99523.98;;;6.49;100.00
70488;BME280;57976;48.174;16.370;2024-03-07T01:16:03;99517.84;;;6.52;100.00
70488;BME280;57976;48.174;16.370;2024-03-07T01:18:07;99520.61;;;6.54;100.00
70488;BME280;57976;48.174;16.370;2024-03-07T01:20:14;99518.81;;;6.56;100.00
70488;BME280;57976;48.174;16.370;2024-03-07T01:22:18;99511.63;;;6.58;100.00
70488;BME280;57976;48.174;16.370;2024-03-07T01:24:26;99515.52;;;6.61;100.00
70488;BME280;57976;48.174;16.370;2024-03-07T01:26:32;99509.33;;;6.65;100.00
70488;BME280;57976;48.174;16.370;2024-03-07T01:28:38;99514.27;;;6.69;100.00
70488;BME280;57976;48.174;16.370;2024-03-07T01:30:42;99517.98;;;6.73;100.00
70488;BME280;57976;48.174;16.370;2024-03-07T01:32:47;99514.81;;;6.76;100.00
70488;BME280;57976;48.174;16.370;2024-03-07T01:34:52;99508.77;;;6.78;100.00
70488;BME280;57976;48.174;16.370;2024-03-07T01:37:00;99505.80;;;6.79;100.00
70488;BME280;57976;48.174;16.370;2024-03-07T01:39:05;99507.79;;;6.83;100.00
70488;BME280;57976;48.174;16.370;2024-03-07T01:41:09;99507.24;;;6.85;100.00
70488;BME280;57976;48.174;16.370;2024-03-07T01:43:17;99508.20;;;6.87;100.00
70488;BME280;57976;48.174;16.370;2024-03-07T01:45:22;99509.90;;;6.91;100.00
70488;BME280;57976;48.174;16.370;2024-03-07T01:47:32;99509.56;;;6.92;100.00
70488;BME280;57976;48.174;16.370;2024-03-07T01:49:38;99509.91;;;6.94;100.00
70488;BME280;57976;48.174;16.370;2024-03-07T01:51:46;99511.32;;;6.92;100.00
70488;BME280;57976;48.174;16.370;2024-03-07T01:53:52;99512.15;;;6.91;100.00
70488;BME280;57976;48.174;16.370;2024-03-07T01:56:01;99506.68;;;6.93;100.00
70488;BME280;57976;48.174;16.370;2024-03-07T01:58:07;99503.38;;;6.92;100.00
70488;BME280;57976;48.174;16.370;2024-03-07T02:00:14;99504.79;;;6.94;100.00
70488;BME280;57976;48.174;16.370;2024-03-07T02:02:24;99499.18;;;6.95;100.00
70488;BME280;57976;48.174;16.370;2024-03-07T02:04:29;99508.50;;;6.98;100.00
70488;BME280;57976;48.174;16.370;2024-03-07T02:06:34;99506.84;;;6.99;100.00
70488;BME280;57976;48.174;16.370;2024-03-07T02:08:41;99499.07;;;7.01;100.00
70488;BME280;57976;48.174;16.370;2024-03-07T02:10:45;99497.17;;;7.00;100.00
70488;BME280;57976;48.174;16.370;2024-03-07T02:12:59;99493.58;;;6.99;100.00
70488;BME280;57976;48.174;16.370;2024-03-07T02:15:04;99492.27;;;7.01;100.00
70488;BME280;57976;48.174;16.370;2024-03-07T02:17:09;99488.98;;;7.02;100.00
70488;BME280;57976;48.174;16.370;2024-03-07T02:19:15;99493.98;;;7.03;100.00
70488;BME280;57976;48.174;16.370;2024-03-07T02:21:20;99489.52;;;7.02;100.00
70488;BME280;57976;48.174;16.370;2024-03-07T02:23:25;99496.91;;;7.01;100.00
70488;BME280;57976;48.174;16.370;2024-03-07T02:25:29;99490.90;;;7.00;100.00
70488;BME280;57976;48.174;16.370;2024-03-07T02:27:34;99486.01;;;6.98;100.00
70488;BME280;57976;48.174;16.370;2024-03-07T02:29:39;99485.51;;;6.97;100.00
70488;BME280;57976;48.174;16.370;2024-03-07T02:31:44;99486.20;;;6.97;100.00
70488;BME280;57976;48.174;16.370;2024-03-07T02:33:49;99482.58;;;6.97;100.00
70488;BME280;57976;48.174;16.370;2024-03-07T02:35:53;99484.36;;;6.95;100.00
70488;BME280;57976;48.174;16.370;2024-03-07T02:37:58;99481.85;;;6.94;100.00
70488;BME280;57976;48.174;16.370;2024-03-07T02:40:03;99483.05;;;6.94;100.00
70488;BME280;57976;48.174;16.370;2024-03-07T02:42:08;99485.05;;;6.95;100.00
70488;BME280;57976;48.174;16.370;2024-03-07T02:44:13;99481.84;;;6.94;100.00
70488;BME280;57976;48.174;16.370;2024-03-07T02:46:18;99483.54;;;6.93;100.00
70488;BME280;57976;48.174;16.370;2024-03-07T02:48:25;99487.11;;;6.93;100.00
70488;BME280;57976;48.174;16.370;2024-03-07T02:50:31;99492.39;;;6.91;100.00
70488;BME280;57976;48.174;16.370;2024-03-07T02:52:37;99484.66;;;6.89;100.00
70488;BME280;57976;48.174;16.370;2024-03-07T02:54:42;99479.87;;;6.88;100.00
70488;BME280;57976;48.174;16.370;2024-03-07T02:56:47;99479.36;;;6.88;100.00
70488;BME280;57976;48.174;16.370;2024-03-07T02:58:51;99491.13;;;6.90;100.00
70488;BME280;57976;48.174;16.370;2024-03-07T03:00:59;99490.29;;;6.90;99.84
70488;BME280;57976;48.174;16.370;2024-03-07T03:03:04;99490.55;;;6.89;99.54
70488;BME280;57976;48.174;16.370;2024-03-07T03:05:12;99489.92;;;6.87;99.31
70488;BME280;57976;48.174;16.370;2024-03-07T03:07:18;99489.35;;;6.86;99.10
70488;BME280;57976;48.174;16.370;2024-03-07T03:09:25;99488.79;;;6.84;99.46
70488;BME280;57976;48.174;16.370;2024-03-07T03:11:30;99496.23;;;6.86;99.30
70488;BME280;57976;48.174;16.370;2024-03-07T03:13:35;99484.50;;;6.86;98.98
70488;BME280;57976;48.174;16.370;2024-03-07T03:15:41;99490.65;;;6.88;99.17
70488;BME280;57976;48.174;16.370;2024-03-07T03:17:47;99491.11;;;6.90;98.80
70488;BME280;57976;48.174;16.370;2024-03-07T03:19:51;99489.35;;;6.90;98.74
70488;BME280;57976;48.174;16.370;2024-03-07T03:21:56;99492.94;;;6.91;98.45
70488;BME280;57976;48.174;16.370;2024-03-07T03:24:01;99488.35;;;6.91;98.45
70488;BME280;57976;48.174;16.370;2024-03-07T03:26:09;99494.50;;;6.91;98.36
70488;BME280;57976;48.174;16.370;2024-03-07T03:28:13;99499.40;;;6.93;97.32
70488;BME280;57976;48.174;16.370;2024-03-07T03:30:18;99495.05;;;6.91;97.25
70488;BME280;57976;48.174;16.370;2024-03-07T03:32:24;99489.66;;;6.89;97.47
70488;BME280;57976;48.174;16.370;2024-03-07T03:34:32;99496.50;;;6.91;97.60
70488;BME280;57976;48.174;16.370;2024-03-07T03:36:37;99493.08;;;6.91;97.69
70488;BME280;57976;48.174;16.370;2024-03-07T03:38:41;99497.94;;;6.92;97.28
70488;BME280;57976;48.174;16.370;2024-03-07T03:40:46;99493.39;;;6.92;97.31
70488;BME280;57976;48.174;16.370;2024-03-07T03:42:54;99489.44;;;6.92;97.50
70488;BME280;57976;48.174;16.370;2024-03-07T03:45:02;99497.96;;;6.95;97.28
70488;BME280;57976;48.174;16.370;2024-03-07T03:47:07;99496.17;;;6.95;96.92
70488;BME280;57976;48.174;16.370;2024-03-07T03:49:15;99504.28;;;6.94;96.82
70488;BME280;57976;48.174;16.370;2024-03-07T03:51:22;99495.91;;;6.94;96.68
70488;BME280;57976;48.174;16.370;2024-03-07T03:53:30;99496.32;;;6.92;96.50
70488;BME280;57976;48.174;16.370;2024-03-07T03:55:37;99494.27;;;6.92;96.20
70488;BME280;57976;48.174;16.370;2024-03-07T03:57:44;99496.17;;;6.93;96.49
70488;BME280;57976;48.174;16.370;2024-03-07T03:59:49;99497.09;;;6.96;95.96
70488;BME280;57976;48.174;16.370;2024-03-07T04:01:54;99494.88;;;6.97;95.48
70488;BME280;57976;48.174;16.370;2024-03-07T04:03:58;99498.55;;;6.96;95.09
70488;BME280;57976;48.174;16.370;2024-03-07T04:06:04;99496.30;;;6.95;94.34
70488;BME280;57976;48.174;16.370;2024-03-07T04:08:08;99496.38;;;6.95;94.44
70488;BME280;57976;48.174;16.370;2024-03-07T04:10:17;99492.83;;;6.97;94.27
70488;BME280;57976;48.174;16.370;2024-03-07T04:12:22;99491.17;;;6.96;94.53
70488;BME280;57976;48.174;16.370;2024-03-07T04:14:28;99488.66;;;6.96;94.65
70488;BME280;57976;48.174;16.370;2024-03-07T04:16:34;99488.05;;;6.98;94.64
70488;BME280;57976;48.174;16.370;2024-03-07T04:18:38;99487.61;;;6.99;94.88
70488;BME280;57976;48.174;16.370;2024-03-07T04:20:43;99491.52;;;7.00;94.85
70488;BME280;57976;48.174;16.370;2024-03-07T04:22:50;99488.52;;;6.99;94.50
70488;BME280;57976;48.174;16.370;2024-03-07T04:24:58;99493.70;;;6.98;94.82
70488;BME280;57976;48.174;16.370;2024-03-07T04:27:03;99484.02;;;6.98;94.68
70488;BME280;57976;48.174;16.370;2024-03-07T04:29:08;99488.23;;;6.97;94.56
70488;BME280;57976;48.174;16.370;2024-03-07T04:31:13;99487.20;;;6.97;94.66
70488;BME280;57976;48.174;16.370;2024-03-07T04:33:17;99493.45;;;6.97;94.88
70488;BME280;57976;48.174;16.370;2024-03-07T04:35:22;99495.91;;;6.96;94.35
70488;BME280;57976;48.174;16.370;2024-03-07T04:37:30;99496.27;;;6.94;94.54
70488;BME280;57976;48.174;16.370;2024-03-07T04:39:35;99506.00;;;6.91;94.33
70488;BME280;57976;48.174;16.370;2024-03-07T04:41:39;99501.27;;;6.89;94.72
70488;BME280;57976;48.174;16.370;2024-03-07T04:43:44;99500.05;;;6.89;94.98
70488;BME280;57976;48.174;16.370;2024-03-07T04:45:49;99494.77;;;6.89;95.05
70488;BME280;57976;48.174;16.370;2024-03-07T04:47:54;99499.32;;;6.89;95.23
70488;BME280;57976;48.174;16.370;2024-03-07T04:50:00;99500.30;;;6.90;95.10
70488;BME280;57976;48.174;16.370;2024-03-07T04:52:08;99498.95;;;6.88;95.07
70488;BME280;57976;48.174;16.370;2024-03-07T04:54:13;99501.60;;;6.89;95.38
70488;BME280;57976;48.174;16.370;2024-03-07T04:56:20;99514.88;;;6.91;94.60
70488;BME280;57976;48.174;16.370;2024-03-07T04:58:25;99507.33;;;6.90;94.55
70488;BME280;57976;48.174;16.370;2024-03-07T05:00:30;99506.78;;;6.89;94.70
70488;BME280;57976;48.174;16.370;2024-03-07T05:02:35;99504.14;;;6.84;94.84
70488;BME280;57976;48.174;16.370;2024-03-07T05:04:39;99509.40;;;6.85;94.97
70488;BME280;57976;48.174;16.370;2024-03-07T05:06:44;99506.16;;;6.85;94.28
70488;BME280;57976;48.174;16.370;2024-03-07T05:08:49;99500.95;;;6.81;94.54
70488;BME280;57976;48.174;16.370;2024-03-07T05:10:54;99509.83;;;6.79;94.01
70488;BME280;57976;48.174;16.370;2024-03-07T05:12:58;99515.69;;;6.79;93.58
70488;BME280;57976;48.174;16.370;2024-03-07T05:15:04;99510.20;;;6.76;93.08
70488;BME280;57976;48.174;16.370;2024-03-07T05:17:09;99519.27;;;6.75;93.42
70488;BME280;57976;48.174;16.370;2024-03-07T05:19:14;99521.42;;;6.75;93.61
70488;BME280;57976;48.174;16.370;2024-03-07T05:21:19;99523.55;;;6.74;93.88
70488;BME280;57976;48.174;16.370;2024-03-07T05:23:24;99521.82;;;6.68;93.80
70488;BME280;57976;48.174;16.370;2024-03-07T05:25:29;99517.69;;;6.64;94.32
70488;BME280;57976;48.174;16.370;2024-03-07T05:27:33;99519.61;;;6.62;94.58
70488;BME280;57976;48.174;16.370;2024-03-07T05:29:38;99521.92;;;6.64;94.69
70488;BME280;57976;48.174;16.370;2024-03-07T05:31:43;99523.35;;;6.64;94.87
70488;BME280;57976;48.174;16.370;2024-03-07T05:33:48;99530.84;;;6.63;94.65
70488;BME280;57976;48.174;16.370;2024-03-07T05:35:53;99524.00;;;6.60;94.61
70488;BME280;57976;48.174;16.370;2024-03-07T05:37:58;99541.03;;;6.59;94.48
70488;BME280;57976;48.174;16.370;2024-03-07T05:40:04;99536.81;;;6.57;94.86
70488;BME280;57976;48.174;16.370;2024-03-07T05:42:09;99538.61;;;6.54;94.86
70488;BME280;57976;48.174;16.370;2024-03-07T05:44:14;99537.52;;;6.52;94.59
70488;BME280;57976;48.174;16.370;2024-03-07T05:46:19;99538.98;;;6.49;95.04
70488;BME280;57976;48.174;16.370;2024-03-07T05:48:26;99535.55;;;6.47;94.97
70488;BME280;57976;48.174;16.370;2024-03-07T05:50:34;99535.55;;;6.45;95.36
70488;BME280;57976;48.174;16.370;2024-03-07T05:52:40;99545.17;;;6.44;95.42
70488;BME280;57976;48.174;16.370;2024-03-07T05:54:44;99540.77;;;6.44;95.37
70488;BME280;57976;48.174;16.370;2024-03-07T05:56:49;99538.93;;;6.43;95.24
70488;BME280;57976;48.174;16.370;2024-03-07T05:58:54;99541.21;;;6.40;95.26
70488;BME280;57976;48.174;16.370;2024-03-07T06:01:00;99541.55;;;6.39;95.25
70488;BME280;57976;48.174;16.370;2024-03-07T06:03:05;99536.55;;;6.37;94.57
70488;BME280;57976;48.174;16.370;2024-03-07T06:05:10;99540.87;;;6.39;95.18
70488;BME280;57976;48.174;16.370;2024-03-07T06:07:15;99539.44;;;6.40;94.23
70488;BME280;57976;48.174;16.370;2024-03-07T06:09:20;99543.45;;;6.42;93.89
70488;BME280;57976;48.174;16.370;2024-03-07T06:11:24;99536.44;;;6.43;93.93
70488;BME280;57976;48.174;16.370;2024-03-07T06:13:29;99543.30;;;6.43;93.44
70488;BME280;57976;48.174;16.370;2024-03-07T06:15:34;99548.85;;;6.44;93.04
70488;BME280;57976;48.174;16.370;2024-03-07T06:17:44;99549.67;;;6.45;92.98
70488;BME280;57976;48.174;16.370;2024-03-07T06:19:52;99549.73;;;6.46;92.13
70488;BME280;57976;48.174;16.370;2024-03-07T06:21:57;99546.10;;;6.44;92.20
70488;BME280;57976;48.174;16.370;2024-03-07T06:24:02;99549.62;;;6.39;91.94
70488;BME280;57976;48.174;16.370;2024-03-07T06:26:14;99556.89;;;6.37;92.05
70488;BME280;57976;48.174;16.370;2024-03-07T06:28:20;99547.33;;;6.36;92.28
70488;BME280;57976;48.174;16.370;2024-03-07T06:30:25;99551.60;;;6.37;92.32
70488;BME280;57976;48.174;16.370;2024-03-07T06:32:30;99554.14;;;6.38;91.77
70488;BME280;57976;48.174;16.370;2024-03-07T06:34:34;99559.80;;;6.38;91.95
70488;BME280;57976;48.174;16.370;2024-03-07T06:36:39;99559.05;;;6.37;91.47
70488;BME280;57976;48.174;16.370;2024-03-07T06:38:44;99554.82;;;6.35;91.64
70488;BME280;57976;48.174;16.370;2024-03-07T06:40:53;99558.70;;;6.32;92.15
70488;BME280;57976;48.174;16.370;2024-03-07T06:43:01;99564.35;;;6.32;92.24
70488;BME280;57976;48.174;16.370;2024-03-07T06:45:07;99579.63;;;6.32;91.79
70488;BME280;57976;48.174;16.370;2024-03-07T06:47:12;99564.64;;;6.32;91.53
70488;BME280;57976;48.174;16.370;2024-03-07T06:49:17;99570.54;;;6.32;92.11
70488;BME280;57976;48.174;16.370;2024-03-07T06:51:21;99574.36;;;6.32;91.92
70488;BME280;57976;48.174;16.370;2024-03-07T06:53:26;99570.21;;;6.30;91.72
70488;BME280;57976;48.174;16.370;2024-03-07T06:55:35;99567.47;;;6.28;91.87
70488;BME280;57976;48.174;16.370;2024-03-07T06:57:40;99569.95;;;6.24;91.95
70488;BME280;57976;48.174;16.370;2024-03-07T06:59:45;99573.82;;;6.23;92.09
70488;BME280;57976;48.174;16.370;2024-03-07T07:01:51;99571.04;;;6.22;92.28
70488;BME280;57976;48.174;16.370;2024-03-07T07:03:58;99568.89;;;6.24;92.71
70488;BME280;57976;48.174;16.370;2024-03-07T07:06:03;99571.29;;;6.30;92.33
70488;BME280;57976;48.174;16.370;2024-03-07T07:08:08;99575.45;;;6.33;92.48
70488;BME280;57976;48.174;16.370;2024-03-07T07:10:14;99577.01;;;6.38;92.32
70488;BME280;57976;48.174;16.370;2024-03-07T07:12:19;99574.92;;;6.42;91.82
70488;BME280;57976;48.174;16.370;2024-03-07T07:14:24;99579.25;;;6.42;91.61
70488;BME280;57976;48.174;16.370;2024-03-07T07:16:28;99581.77;;;6.42;91.14
70488;BME280;57976;48.174;16.370;2024-03-07T07:18:34;99583.15;;;6.40;91.70
70488;BME280;57976;48.174;16.370;2024-03-07T07:20:39;99581.24;;;6.42;91.64
70488;BME280;57976;48.174;16.370;2024-03-07T07:22:45;99578.23;;;6.40;91.44
70488;BME280;57976;48.174;16.370;2024-03-07T07:24:50;99583.69;;;6.39;91.49
70488;BME280;57976;48.174;16.370;2024-03-07T07:26:55;99583.06;;;6.36;92.23
70488;BME280;57976;48.174;16.370;2024-03-07T07:29:02;99579.92;;;6.38;92.14
70488;BME280;57976;48.174;16.370;2024-03-07T07:31:07;99571.41;;;6.43;92.00
70488;BME280;57976;48.174;16.370;2024-03-07T07:33:15;99576.89;;;6.48;91.50
70488;BME280;57976;48.174;16.370;2024-03-07T07:35:20;99573.01;;;6.52;90.77
70488;BME280;57976;48.174;16.370;2024-03-07T07:37:25;99570.15;;;6.56;91.22
70488;BME280;57976;48.174;16.370;2024-03-07T07:39:33;99577.80;;;6.61;90.86
70488;BME280;57976;48.174;16.370;2024-03-07T07:41:41;99569.00;;;6.69;89.76
70488;BME280;57976;48.174;16.370;2024-03-07T07:43:45;99571.73;;;6.75;89.58
70488;BME280;57976;48.174;16.370;2024-03-07T07:45:50;99575.70;;;6.76;89.07
70488;BME280;57976;48.174;16.370;2024-03-07T07:47:56;99573.31;;;6.75;88.49
70488;BME280;57976;48.174;16.370;2024-03-07T07:50:04;99569.41;;;6.72;88.89
70488;BME280;57976;48.174;16.370;2024-03-07T07:52:09;99573.66;;;6.72;88.49
70488;BME280;57976;48.174;16.370;2024-03-07T07:54:14;99577.77;;;6.72;88.61
70488;BME280;57976;48.174;16.370;2024-03-07T07:56:22;99582.23;;;6.73;88.55
70488;BME280;57976;48.174;16.370;2024-03-07T07:58:30;99578.84;;;6.75;88.82
70488;BME280;57976;48.174;16.370;2024-03-07T08:00:36;99579.86;;;6.75;88.80
70488;BME280;57976;48.174;16.370;2024-03-07T08:02:40;99578.48;;;6.75;88.75
70488;BME280;57976;48.174;16.370;2024-03-07T08:04:46;99576.77;;;6.73;89.06
70488;BME280;57976;48.174;16.370;2024-03-07T08:06:51;99590.55;;;6.77;88.75
70488;BME280;57976;48.174;16.370;2024-03-07T08:08:57;99577.79;;;6.81;88.50
70488;BME280;57976;48.174;16.370;2024-03-07T08:11:02;99586.73;;;6.87;88.37
70488;BME280;57976;48.174;16.370;2024-03-07T08:13:07;99578.90;;;6.96;87.11
70488;BME280;57976;48.174;16.370;2024-03-07T08:15:17;99579.23;;;7.05;86.69
70488;BME280;57976;48.174;16.370;2024-03-07T08:17:22;99579.20;;;7.13;85.91
70488;BME280;57976;48.174;16.370;2024-03-07T08:19:27;99575.81;;;7.20;85.13
70488;BME280;57976;48.174;16.370;2024-03-07T08:21:33;99577.46;;;7.28;84.39
70488;BME280;57976;48.174;16.370;2024-03-07T08:23:38;99576.80;;;7.34;81.98
70488;BME280;57976;48.174;16.370;2024-03-07T08:25:43;99576.14;;;7.34;80.43
70488;BME280;57976;48.174;16.370;2024-03-07T08:27:49;99574.06;;;7.30;78.43
70488;BME280;57976;48.174;16.370;2024-03-07T08:29:56;99576.46;;;7.28;78.53
70488;BME280;57976;48.174;16.370;2024-03-07T08:32:08;99576.96;;;7.28;78.78
70488;BME280;57976;48.174;16.370;2024-03-07T08:34:13;99581.14;;;7.35;78.49
70488;BME280;57976;48.174;16.370;2024-03-07T08:36:17;99584.77;;;7.35;77.62
70488;BME280;57976;48.174;16.370;2024-03-07T08:38:22;99577.02;;;7.37;77.59
70488;BME280;57976;48.174;16.370;2024-03-07T08:40:28;99583.17;;;7.37;78.39
70488;BME280;57976;48.174;16.370;2024-03-07T08:42:36;99583.52;;;7.35;77.38
70488;BME280;57976;48.174;16.370;2024-03-07T08:44:41;99588.06;;;7.33;77.11
70488;BME280;57976;48.174;16.370;2024-03-07T08:46:49;99583.03;;;7.28;77.34
70488;BME280;57976;48.174;16.370;2024-03-07T08:48:54;99578.10;;;7.26;77.03
70488;BME280;57976;48.174;16.370;2024-03-07T08:50:58;99575.85;;;7.21;77.40
70488;BME280;57976;48.174;16.370;2024-03-07T08:53:04;99577.70;;;7.19;77.72
70488;BME280;57976;48.174;16.370;2024-03-07T08:55:11;99570.96;;;7.19;77.20
70488;BME280;57976;48.174;16.370;2024-03-07T08:57:16;99568.91;;;7.17;77.47
70488;BME280;57976;48.174;16.370;2024-03-07T08:59:21;99570.37;;;7.16;77.85
70488;BME280;57976;48.174;16.370;2024-03-07T09:01:29;99566.23;;;7.20;77.25
70488;BME280;57976;48.174;16.370;2024-03-07T09:03:34;99577.73;;;7.26;75.89
70488;BME280;57976;48.174;16.370;2024-03-07T09:05:39;99570.24;;;7.26;75.56
70488;BME280;57976;48.174;16.370;2024-03-07T09:07:43;99565.55;;;7.26;75.82
70488;BME280;57976;48.174;16.370;2024-03-07T09:09:51;99567.27;;;7.28;75.70
70488;BME280;57976;48.174;16.370;2024-03-07T09:11:57;99566.48;;;7.33;75.90
70488;BME280;57976;48.174;16.370;2024-03-07T09:14:02;99571.21;;;7.43;75.34
70488;BME280;57976;48.174;16.370;2024-03-07T09:16:07;99566.86;;;7.52;75.07
70488;BME280;57976;48.174;16.370;2024-03-07T09:18:12;99564.09;;;7.56;74.38
70488;BME280;57976;48.174;16.370;2024-03-07T09:20:17;99564.98;;;7.56;74.67
70488;BME280;57976;48.174;16.370;2024-03-07T09:22:25;99564.20;;;7.58;74.88
70488;BME280;57976;48.174;16.370;2024-03-07T09:24:31;99572.30;;;7.59;74.49
70488;BME280;57976;48.174;16.370;2024-03-07T09:26:36;99568.18;;;7.61;73.92
70488;BME280;57976;48.174;16.370;2024-03-07T09:28:41;99566.93;;;7.60;74.16
70488;BME280;57976;48.174;16.370;2024-03-07T09:30:47;99563.05;;;7.57;74.11
70488;BME280;57976;48.174;16.370;2024-03-07T09:32:51;99561.02;;;7.55;74.38
70488;BME280;57976;48.174;16.370;2024-03-07T09:34:56;99564.41;;;7.60;74.26
70488;BME280;57976;48.174;16.370;2024-03-07T09:37:01;99560.67;;;7.63;73.73
70488;BME280;57976;48.174;16.370;2024-03-07T09:39:06;99567.52;;;7.67;73.20
70488;BME280;57976;48.174;16.370;2024-03-07T09:41:11;99565.86;;;7.69;72.41
70488;BME280;57976;48.174;16.370;2024-03-07T09:43:19;99572.65;;;7.73;72.15
70488;BME280;57976;48.174;16.370;2024-03-07T09:45:30;99568.56;;;7.75;72.10
70488;BME280;57976;48.174;16.370;2024-03-07T09:47:36;99571.58;;;7.75;72.22
70488;BME280;57976;48.174;16.370;2024-03-07T09:49:41;99570.62;;;7.69;72.03
70488;BME280;57976;48.174;16.370;2024-03-07T09:51:47;99574.38;;;7.67;72.35
70488;BME280;57976;48.174;16.370;2024-03-07T09:53:58;99579.70;;;7.67;72.17
70488;BME280;57976;48.174;16.370;2024-03-07T09:56:04;99581.91;;;7.66;71.95
70488;BME280;57976;48.174;16.370;2024-03-07T09:58:09;99579.56;;;7.64;72.01
70488;BME280;57976;48.174;16.370;2024-03-07T10:00:18;99575.40;;;7.67;72.10
70488;BME280;57976;48.174;16.370;2024-03-07T10:02:25;99575.73;;;7.72;72.06
70488;BME280;57976;48.174;16.370;2024-03-07T10:04:42;99581.46;;;7.78;71.90
70488;BME280;57976;48.174;16.370;2024-03-07T10:06:50;99585.33;;;7.79;71.57
70488;BME280;57976;48.174;16.370;2024-03-07T10:08:56;99579.95;;;7.80;72.02
70488;BME280;57976;48.174;16.370;2024-03-07T10:11:01;99572.93;;;7.78;72.29
70488;BME280;57976;48.174;16.370;2024-03-07T10:13:06;99573.29;;;7.84;73.08
70488;BME280;57976;48.174;16.370;2024-03-07T10:15:12;99584.09;;;7.94;71.73
70488;BME280;57976;48.174;16.370;2024-03-07T10:17:16;99583.45;;;7.98;70.84
70488;BME280;57976;48.174;16.370;2024-03-07T10:19:21;99575.67;;;7.97;70.50
70488;BME280;57976;48.174;16.370;2024-03-07T10:21:27;99576.92;;;7.91;70.57
70488;BME280;57976;48.174;16.370;2024-03-07T10:23:32;99569.09;;;7.93;71.03
70488;BME280;57976;48.174;16.370;2024-03-07T10:25:37;99575.29;;;8.00;70.91
70488;BME280;57976;48.174;16.370;2024-03-07T10:27:42;99568.14;;;8.05;70.90
70488;BME280;57976;48.174;16.370;2024-03-07T10:29:48;99573.45;;;8.04;71.70
70488;BME280;57976;48.174;16.370;2024-03-07T10:31:53;99576.53;;;8.01;72.62
70488;BME280;57976;48.174;16.370;2024-03-07T10:34:09;99576.11;;;7.96;72.81
70488;BME280;57976;48.174;16.370;2024-03-07T10:36:14;99577.85;;;7.96;73.43
70488;BME280;57976;48.174;16.370;2024-03-07T10:38:19;99572.74;;;7.96;73.90
70488;BME280;57976;48.174;16.370;2024-03-07T10:40:24;99578.09;;;7.94;73.47
70488;BME280;57976;48.174;16.370;2024-03-07T10:42:30;99574.27;;;7.95;73.32
70488;BME280;57976;48.174;16.370;2024-03-07T10:44:39;99578.64;;;7.96;73.20
70488;BME280;57976;48.174;16.370;2024-03-07T10:46:49;99575.02;;;7.89;72.91
70488;BME280;57976;48.174;16.370;2024-03-07T10:49:00;99566.88;;;7.87;73.86
70488;BME280;57976;48.174;16.370;2024-03-07T10:51:13;99571.15;;;7.94;73.84
70488;BME280;57976;48.174;16.370;2024-03-07T10:53:28;99568.22;;;7.95;73.43
70488;BME280;57976;48.174;16.370;2024-03-07T10:55:37;99577.21;;;7.96;73.33
70488;BME280;57976;48.174;16.370;2024-03-07T10:57:51;99567.11;;;7.99;74.11
70488;BME280;57976;48.174;16.370;2024-03-07T11:00:02;99567.14;;;8.03;74.40
70488;BME280;57976;48.174;16.370;2024-03-07T11:02:18;99577.77;;;8.06;73.47
70488;BME280;57976;48.174;16.370;2024-03-07T11:04:25;99568.93;;;8.03;73.45